Register | Login
Attackpoint AR - performance and training tools for adventure athletes

Common Leg: 129 – 101

OCIN Flying Pig XXIV - 2022 Junior Nationals (Apr 2) - this leg is used on the following courses:

Combined splits

#
1. lily. 59 OCIN_FP2022_Saturday_Classic_2022-04-02_9_GreenC
2. Benjamin Cooper 1:05 +6 10% OCIN_FP2022_Saturday_Classic_2022-04-02_4_OrangeB
2. Ben Brady 1:05 +6 10% OCIN_FP2022_Saturday_Classic_2022-04-02_9_GreenC
4. Conner Malone 1:06 +7 12% OCIN_FP2022_Saturday_Classic_2022-04-02_9_GreenC
4. Jackson Rupe 1:06 +7 12% OCIN_FP2022_Saturday_Classic_2022-04-02_4_OrangeB
6. jcolleran 1:07 +8 14% OCIN_FP2022_Saturday_Classic_2022-04-02_9_GreenC
7. Luke Menzie 1:08 +9 15% OCIN_FP2022_Saturday_Classic_2022-04-02_9_GreenC
8. Jack Barkley 1:11 +12 20% OCIN_FP2022_Saturday_Classic_2022-04-02_9_GreenC
9. Sandbo 1:14 +15 25% OCIN_FP2022_Saturday_Classic_2022-04-02_9_GreenC
10. Ethan Leonovich 1:15 +16 27% OCIN_FP2022_Saturday_Classic_2022-04-02_4_OrangeB
10. Josie Olson 1:15 +16 27% OCIN_FP2022_Saturday_Classic_2022-04-02_9_GreenC
10. cmpblla 1:15 +16 27% OCIN_FP2022_Saturday_Classic_2022-04-02_9_GreenC
13. Rick Breseman 1:16 +17 29% OCIN_FP2022_Saturday_Classic_2022-04-02_8_GreenB
14. Amari Cooper 1:17 +18 31% OCIN_FP2022_Saturday_Classic_2022-04-02_4_OrangeB
15. birksr 1:19 +20 34% OCIN_FP2022_Saturday_Classic_2022-04-02_8_GreenB
16. Benjamin Hart 1:20 +21 36% OCIN_FP2022_Saturday_Classic_2022-04-02_8_GreenB
16. Norman P Flout 1:20 +21 36% OCIN_FP2022_Saturday_Classic_2022-04-02_8_GreenB
16. TianZheng Wang 1:20 +21 36% OCIN_FP2022_Saturday_Classic_2022-04-02_4_OrangeB
19. cmorse 1:21 +22 37% OCIN_FP2022_Saturday_Classic_2022-04-02_8_GreenB
19. annikamihata 1:21 +22 37% OCIN_FP2022_Saturday_Classic_2022-04-02_9_GreenC
19. Brucewithamap 1:21 +22 37% OCIN_FP2022_Saturday_Classic_2022-04-02_8_GreenB
22. Brett Barrows 1:22 +23 39% OCIN_FP2022_Saturday_Classic_2022-04-02_9_GreenC
22. Cooper Green 1:22 +23 39% OCIN_FP2022_Saturday_Classic_2022-04-02_8_GreenB
22. MaxA 1:22 +23 39% OCIN_FP2022_Saturday_Classic_2022-04-02_9_GreenC
25. Brenden Doogan 1:23 +24 41% OCIN_FP2022_Saturday_Classic_2022-04-02_9_GreenC
25. Lost OH Rabbit 1:23 +24 41% OCIN_FP2022_Saturday_Classic_2022-04-02_8_GreenB
27. Dominic Ragusa 1:24 +25 42% OCIN_FP2022_Saturday_Classic_2022-04-02_4_OrangeB
27. Finley Miller 1:24 +25 42% OCIN_FP2022_Saturday_Classic_2022-04-02_9_GreenC
27. Nizayah Carter 1:24 +25 42% OCIN_FP2022_Saturday_Classic_2022-04-02_4_OrangeB
27. Kevin Mihata 1:24 +25 42% OCIN_FP2022_Saturday_Classic_2022-04-02_8_GreenB
31. zsibthorp 1:26 +27 46% OCIN_FP2022_Saturday_Classic_2022-04-02_9_GreenC
31. Aiden Morrella 1:26 +27 46% OCIN_FP2022_Saturday_Classic_2022-04-02_4_OrangeB
33. Roman Colley 1:27 +28 47% OCIN_FP2022_Saturday_Classic_2022-04-02_9_GreenC
34. rastridge 1:28 +29 49% OCIN_FP2022_Saturday_Classic_2022-04-02_9_GreenC
34. rhojnowski 1:28 +29 49% OCIN_FP2022_Saturday_Classic_2022-04-02_8_GreenB
36. Erick Rodriguez 1:29 +30 51% OCIN_FP2022_Saturday_Classic_2022-04-02_4_OrangeB
37. Corrigan Railey 1:31 +32 54% OCIN_FP2022_Saturday_Classic_2022-04-02_9_GreenC
38. Sevastian Irimie 1:32 +33 56% OCIN_FP2022_Saturday_Classic_2022-04-02_8_GreenB
39. Andre Carranza 1:33 +34 58% OCIN_FP2022_Saturday_Classic_2022-04-02_4_OrangeB
40. Grace Suhocki 1:35 +36 61% OCIN_FP2022_Saturday_Classic_2022-04-02_9_GreenC
40. gzoppi 1:35 +36 61% OCIN_FP2022_Saturday_Classic_2022-04-02_9_GreenC
42. Benjamin Lahann 1:36 +37 63% OCIN_FP2022_Saturday_Classic_2022-04-02_4_OrangeB
43. Salinda 1:41 +42 71% OCIN_FP2022_Saturday_Classic_2022-04-02_9_GreenC
44. Bethany Jablon 1:43 +44 75% OCIN_FP2022_Saturday_Classic_2022-04-02_9_GreenC
44. Emil G 1:43 +44 75% OCIN_FP2022_Saturday_Classic_2022-04-02_8_GreenB
46. Gearhead 1:44 +45 76% OCIN_FP2022_Saturday_Classic_2022-04-02_8_GreenB
46. Benjamin Conley 1:44 +45 76% OCIN_FP2022_Saturday_Classic_2022-04-02_4_OrangeB
48. Antonio Barranco Gonzalez 1:49 +50 85% OCIN_FP2022_Saturday_Classic_2022-04-02_8_GreenB
48. saros 1:49 +50 85% OCIN_FP2022_Saturday_Classic_2022-04-02_8_GreenB
50. tmartineau 1:57 +58 98% OCIN_FP2022_Saturday_Classic_2022-04-02_8_GreenB
51. Isaac Jouwstra 1:58 +59 100% OCIN_FP2022_Saturday_Classic_2022-04-02_4_OrangeB
52. Joshua Hamilton 2:02 +1:03 107% OCIN_FP2022_Saturday_Classic_2022-04-02_9_GreenC
53. Audrey Javadoff 2:08 +1:09 117% OCIN_FP2022_Saturday_Classic_2022-04-02_9_GreenC
54. Kean Williams 2:12 +1:13 124% OCIN_FP2022_Saturday_Classic_2022-04-02_8_GreenB
55. Tim Jouwstra 2:22 +1:23 141% OCIN_FP2022_Saturday_Classic_2022-04-02_4_OrangeB
56. C. J. Meidlinger 2:26 +1:27 147% OCIN_FP2022_Saturday_Classic_2022-04-02_8_GreenB
57. FredM 2:27 +1:28 149% OCIN_FP2022_Saturday_Classic_2022-04-02_8_GreenB
58. Aaron Jouwstra 2:52 +1:53 192% OCIN_FP2022_Saturday_Classic_2022-04-02_4_OrangeB
59. Mason Lotempio 2:53 +1:54 193% OCIN_FP2022_Saturday_Classic_2022-04-02_9_GreenC
60. Connor Martin 3:06 +2:07 215% OCIN_FP2022_Saturday_Classic_2022-04-02_9_GreenC
61. Gabriel DeGracia 3:13 +2:14 227% OCIN_FP2022_Saturday_Classic_2022-04-02_9_GreenC
62. Lukas Lange 3:18 +2:19 236% OCIN_FP2022_Saturday_Classic_2022-04-02_9_GreenC
63. Luke Kiser 4:56 +3:57 402% OCIN_FP2022_Saturday_Classic_2022-04-02_4_OrangeB
64. Alex Bowles 11:28 +10:29 1066% OCIN_FP2022_Saturday_Classic_2022-04-02_9_GreenC